sensor_id;sensor_type;location;lat;lon;timestamp;P1;durP1;ratioP1;P2;durP2;ratioP2
55678;SDS011;41573;51.446;-2.018;2023-02-15T11:24:58;17.77;;;7.78;;
55678;SDS011;41573;51.446;-2.018;2023-02-15T11:27:26;17.08;;;7.40;;
55678;SDS011;41573;51.446;-2.018;2023-02-15T11:29:59;16.88;;;8.60;;
55678;SDS011;41573;51.446;-2.018;2023-02-15T11:32:32;19.52;;;8.48;;
55678;SDS011;41573;51.446;-2.018;2023-02-15T11:40:17;17.98;;;7.03;;
55678;SDS011;41573;51.446;-2.018;2023-02-15T11:42:48;12.65;;;6.60;;
55678;SDS011;41573;51.446;-2.018;2023-02-15T11:47:48;12.95;;;7.00;;
55678;SDS011;41573;51.446;-2.018;2023-02-15T11:50:15;14.15;;;6.07;;
55678;SDS011;41573;51.446;-2.018;2023-02-15T11:52:43;15.18;;;6.32;;
55678;SDS011;41573;51.446;-2.018;2023-02-15T11:55:14;13.13;;;6.30;;
55678;SDS011;41573;51.446;-2.018;2023-02-15T12:02:58;12.10;;;5.95;;
55678;SDS011;41573;51.446;-2.018;2023-02-15T12:05:29;8.80;;;4.63;;
55678;SDS011;41573;51.446;-2.018;2023-02-15T12:15:36;9.60;;;4.68;;
55678;SDS011;41573;51.446;-2.018;2023-02-15T12:18:52;8.77;;;4.57;;
55678;SDS011;41573;51.446;-2.018;2023-02-15T12:21:15;12.77;;;4.80;;
55678;SDS011;41573;51.446;-2.018;2023-02-15T12:24:37;12.45;;;5.00;;
55678;SDS011;41573;51.446;-2.018;2023-02-15T12:31:09;10.20;;;4.65;;
55678;SDS011;41573;51.446;-2.018;2023-02-15T12:34:09;10.68;;;4.60;;
55678;SDS011;41573;51.446;-2.018;2023-02-15T12:36:47;8.63;;;4.25;;
55678;SDS011;41573;51.446;-2.018;2023-02-15T12:39:22;9.57;;;4.85;;
55678;SDS011;41573;51.446;-2.018;2023-02-15T12:44:24;10.85;;;4.07;;
55678;SDS011;41573;51.446;-2.018;2023-02-15T12:49:42;12.25;;;4.65;;
55678;SDS011;41573;51.446;-2.018;2023-02-15T12:54:42;11.52;;;4.85;;
55678;SDS011;41573;51.446;-2.018;2023-02-15T12:57:28;12.85;;;4.95;;
55678;SDS011;41573;51.446;-2.018;2023-02-15T13:07:44;9.10;;;4.22;;
55678;SDS011;41573;51.446;-2.018;2023-02-15T13:10:26;7.15;;;4.28;;
55678;SDS011;41573;51.446;-2.018;2023-02-15T13:12:55;7.05;;;3.40;;
55678;SDS011;41573;51.446;-2.018;2023-02-15T13:15:29;7.50;;;3.63;;
55678;SDS011;41573;51.446;-2.018;2023-02-15T13:18:29;8.45;;;3.33;;
55678;SDS011;41573;51.446;-2.018;2023-02-15T13:21:10;9.77;;;4.57;;
55678;SDS011;41573;51.446;-2.018;2023-02-15T13:23:39;10.02;;;8.45;;
55678;SDS011;41573;51.446;-2.018;2023-02-15T13:26:11;7.97;;;4.20;;
55678;SDS011;41573;51.446;-2.018;2023-02-15T13:28:44;14.55;;;5.10;;
55678;SDS011;41573;51.446;-2.018;2023-02-15T13:31:17;6.32;;;4.00;;
55678;SDS011;41573;51.446;-2.018;2023-02-15T13:33:56;8.70;;;4.40;;
55678;SDS011;41573;51.446;-2.018;2023-02-15T13:37:00;7.78;;;3.65;;
55678;SDS011;41573;51.446;-2.018;2023-02-15T13:42:36;13.32;;;4.45;;
55678;SDS011;41573;51.446;-2.018;2023-02-15T13:47:58;7.10;;;4.32;;
55678;SDS011;41573;51.446;-2.018;2023-02-15T14:07:21;10.82;;;3.47;;
55678;SDS011;41573;51.446;-2.018;2023-02-15T14:19:15;5.40;;;3.22;;
55678;SDS011;41573;51.446;-2.018;2023-02-15T14:21:56;6.60;;;3.05;;
55678;SDS011;41573;51.446;-2.018;2023-02-15T14:24:33;12.20;;;2.35;;
55678;SDS011;41573;51.446;-2.018;2023-02-15T14:27:04;10.77;;;3.30;;
55678;SDS011;41573;51.446;-2.018;2023-02-15T14:29:47;7.82;;;3.47;;
55678;SDS011;41573;51.446;-2.018;2023-02-15T14:32:20;6.70;;;2.97;;
55678;SDS011;41573;51.446;-2.018;2023-02-15T14:34:59;6.78;;;3.50;;
55678;SDS011;41573;51.446;-2.018;2023-02-15T14:40:02;6.25;;;3.10;;
55678;SDS011;41573;51.446;-2.018;2023-02-15T14:42:57;10.82;;;3.47;;
55678;SDS011;41573;51.446;-2.018;2023-02-15T14:45:48;6.85;;;3.45;;
55678;SDS011;41573;51.446;-2.018;2023-02-15T14:48:21;8.30;;;3.08;;
55678;SDS011;41573;51.446;-2.018;2023-02-15T14:51:01;6.20;;;2.65;;
55678;SDS011;41573;51.446;-2.018;2023-02-15T14:56:25;9.73;;;3.28;;
55678;SDS011;41573;51.446;-2.018;2023-02-15T15:01:30;5.55;;;2.63;;
55678;SDS011;41573;51.446;-2.018;2023-02-15T15:03:58;5.93;;;3.35;;
55678;SDS011;41573;51.446;-2.018;2023-02-15T15:06:31;5.72;;;2.60;;
55678;SDS011;41573;51.446;-2.018;2023-02-15T15:09:13;10.98;;;4.07;;
55678;SDS011;41573;51.446;-2.018;2023-02-15T15:11:43;10.88;;;3.53;;
55678;SDS011;41573;51.446;-2.018;2023-02-15T15:16:56;10.25;;;2.95;;
55678;SDS011;41573;51.446;-2.018;2023-02-15T15:32:46;8.02;;;2.58;;
55678;SDS011;41573;51.446;-2.018;2023-02-15T15:44:11;4.97;;;2.75;;
55678;SDS011;41573;51.446;-2.018;2023-02-15T15:50:41;3.88;;;2.63;;
55678;SDS011;41573;51.446;-2.018;2023-02-15T15:53:15;5.15;;;2.25;;
55678;SDS011;41573;51.446;-2.018;2023-02-15T15:55:45;6.85;;;2.83;;
55678;SDS011;41573;51.446;-2.018;2023-02-15T15:58:12;6.03;;;2.83;;
55678;SDS011;41573;51.446;-2.018;2023-02-15T16:03:15;6.30;;;3.05;;
55678;SDS011;41573;51.446;-2.018;2023-02-15T16:05:51;10.57;;;3.30;;
55678;SDS011;41573;51.446;-2.018;2023-02-15T16:10:51;6.47;;;2.63;;
55678;SDS011;41573;51.446;-2.018;2023-02-15T16:13:16;9.75;;;2.70;;
55678;SDS011;41573;51.446;-2.018;2023-02-15T16:15:46;4.40;;;2.47;;
55678;SDS011;41573;51.446;-2.018;2023-02-15T16:18:17;4.40;;;2.55;;
55678;SDS011;41573;51.446;-2.018;2023-02-15T16:20:59;12.30;;;3.73;;
55678;SDS011;41573;51.446;-2.018;2023-02-15T16:27:15;4.88;;;2.95;;
55678;SDS011;41573;51.446;-2.018;2023-02-15T16:29:57;4.22;;;2.70;;
55678;SDS011;41573;51.446;-2.018;2023-02-15T16:32:45;10.30;;;2.28;;
55678;SDS011;41573;51.446;-2.018;2023-02-15T16:35:16;6.53;;;1.88;;
55678;SDS011;41573;51.446;-2.018;2023-02-15T16:37:45;2.25;;;1.35;;
55678;SDS011;41573;51.446;-2.018;2023-02-15T16:42:52;1.75;;;1.13;;
55678;SDS011;41573;51.446;-2.018;2023-02-15T16:45:22;4.95;;;1.20;;
55678;SDS011;41573;51.446;-2.018;2023-02-15T16:47:59;2.65;;;1.10;;
55678;SDS011;41573;51.446;-2.018;2023-02-15T16:50:34;1.00;;;0.90;;
55678;SDS011;41573;51.446;-2.018;2023-02-15T16:53:13;0.40;;;0.40;;
55678;SDS011;41573;51.446;-2.018;2023-02-15T16:55:47;0.55;;;0.50;;
